Weather observations for the past three days for
Harlan
Imperial (Metric)
Date Time (edt) Wind (mph) Vis. (mi.) Weather Sky Cond. Temperature (ºF) Relative Humidity Wind Chill (°F) Heat Index (°F) Pressure Precipitation (in)
Air Dwpt 6 hour altimeter (in) sea level (mb) 1 hr 3 hr 6 hr
Max. Min.
05 13:55 S 3 7.00 Fair CLR 84.7 69.1 84.7 70.2 59% 89 30.02 0.0
05 13:35 SE 3 7.00 Fair CLR 82.6 69.4 65% 86 30.03 0.0
05 13:15 SE 5 7.00 Fair CLR 81.7 69.8 67% 85 30.03 0.0
05 12:55 Calm 7.00 Partly Cloudy SCT022 81.9 70.2 68% 86 30.03 0.0
05 12:35 Calm 7.00 Partly Cloudy SCT020 80.8 69.8 69% 84 30.04 0.0
05 12:15 E 5 7.00 Partly Cloudy SCT020 79.9 70.7 74% 83 30.06 0.0
05 11:55 Calm 7.00 Mostly Cloudy BKN020 BKN095 77 71.1 82% 79 30.06 0.0
05 11:35 SE 5 7.00 Partly Cloudy SCT018 SCT028 SCT095 77.4 70.5 80% 79 30.06 0.0
05 11:15 E 3 7.00 Mostly Cloudy SCT021 BKN027 77.9 69.8 76% 80 30.07 0.0
05 10:55 NE 6 G 17 7.00 Overcast BKN021 OVC026 76.8 70.3 80% 78 30.07 0.0
05 10:35 N 5 7.00 Overcast BKN025 BKN031 OVC039 77.5 70.9 80% 79 30.05 0.0
05 10:15 NW 3 5.00 Partly Cloudy SCT003 SCT037 SCT043 74.7 70.9 88% 30.05 0.0
05 09:55 Calm 7.00 Mostly Cloudy BKN003 72.9 71.6 96% 30.04 0.0
05 09:35 Calm 1.25 Overcast OVC003 71.2 71.1 99% 30.04 0.0
05 09:15 Calm 1.50 Overcast OVC003 71.1 71.1 100% 30.05 0.0
05 08:55 Calm 0.75 Overcast OVC003 71.2 71.2 100% 30.05 0.0
05 08:35 Calm 0.25 Overcast OVC003 70.3 70.3 100% 30.05 0.0
05 08:15 Calm 0.25 Overcast OVC003 70.3 70.3 100% 30.04 0.0
05 07:55 Calm 0.25 Overcast OVC003 70 70 72.1 69.8 100% 30.04 0.0
05 07:35 Calm 0.15 Overcast OVC003 70.2 70.2 100% 30.03 0.0
05 07:15 Calm 0.50 Overcast OVC003 70 70 100% 30.03 0.0
05 06:55 Calm 0.75 Overcast OVC003 70.2 70.2 100% 30.03 0.0
05 06:35 Calm 0.50 Overcast OVC003 70.5 70.5 100% 30.03 0.0
05 06:15 Calm 0.25 Overcast OVC003 70.7 70.7 100% 30.02 0.0
05 05:55 Calm 0.75 Overcast OVC003 70.7 70.7 100% 30.02 0.0
05 05:35 Calm 0.25 Overcast OVC003 70.7 70.7 100% 30.02 0.0
05 05:15 Calm 0.50 Overcast OVC003 70.9 70.9 100% 30.01 0.0
05 04:55 Calm 0.50 Overcast OVC003 70.7 70.7 100% 30.01 0.0
05 04:35 Calm 1.00 Overcast OVC003 71.1 71.1 100% 30.01 0.0
05 04:15 Calm 1.25 Overcast OVC003 71.2 71.2 100% 30.01 0.0
05 03:55 Calm 0.75 Overcast OVC003 71.2 71.2 100% 30.02 0.0
05 03:35 Calm 1.00 Overcast OVC003 71.6 71.6 100% 30.02 0.0
05 03:15 Calm 4.00 Overcast OVC003 71.6 71.6 100% 30.03 0.0
05 02:55 Calm 4.00 Overcast OVC003 71.6 71.6 100% 30.03 0.0
05 02:35 Calm 5.00 Overcast OVC003 72.1 72.1 100% 30.04 0.0
05 02:15 Calm 5.00 Overcast OVC003 72 72 100% 30.04 0.0
05 01:55 Calm 5.00 Overcast OVC003 71.8 71.8 79.9 71.6 100% 30.05 0.0
05 01:35 Calm 7.00 Partly Cloudy SCT003 71.8 71.8 100% 30.06 0.0
05 01:15 Calm 7.00 Partly Cloudy SCT003 72 72 100% 30.06 0.0
05 00:55 Calm 7.00 Fair CLR 72.1 72 99% 30.06 0.0
05 00:35 Calm 7.00 Fair CLR 72 71.8 99% 30.06 0.0
05 00:15 Calm 7.00 Fair CLR 72.7 72.1 98% 30.06 0.0
04 23:55 Calm 10.00 Fair CLR 72.7 72.3 99% 30.06 0.0
04 23:35 Calm 7.00 Fair CLR 72.7 72.1 98% 30.05 0.0
04 23:15 Calm 7.00 Fair CLR 73 72 96% 30.04 0.0
04 22:55 Calm 10.00 Fair CLR 73.2 71.6 95% 30.05 0.0
04 22:35 Calm 10.00 Fair CLR 73.4 71.4 94% 30.05 0.0
04 22:15 Calm 10.00 Fair CLR 74.3 71.6 91% 30.03 0.0
04 21:55 Calm 10.00 Fair CLR 74.7 71.1 89% 30.03 0.0
04 21:35 Calm 10.00 Fair CLR 75.6 71.4 87% 76 30.03 0.0
04 21:15 Calm 10.00 Fair CLR 76.6 71.2 83% 78 30.03 0.0
04 20:55 Calm 10.00 Fair CLR 76.8 70.9 82% 78 30.04 0.0
04 20:35 Calm 10.00 Fair CLR 78.8 70.3 75% 81 30.03 0.0
04 20:15 Calm 10.00 Fair CLR 78.8 70.5 76% 82 30.04 0.0
04 19:55 NE 3 10.00 Fair CLR 79.9 71.6 94.6 79.9 76% 83 30.05 0.0
04 19:35 E 3 10.00 Fair CLR 82.4 72 71% 87 30.05 0.0
04 19:15 NE 3 10.00 Fair CLR 83.5 72 68% 89 30.04 0.0
04 18:55 Calm 10.00 Fair CLR 85.3 71.6 64% 91 30.04 0.0
04 18:35 Calm 10.00 Fair CLR 88 70.9 57% 94 30.03 0.0
04 18:15 Calm 10.00 Fair CLR 86 70.5 60% 91 30.03 0.0
04 17:55 Calm 10.00 Fair CLR 88.5 69.8 54% 94 30.02 0.0
04 17:35 N 5 10.00 Fair CLR 92.1 67.1 44% 96 30.02 0.0
04 17:15 NW 7 10.00 Fair CLR 93.4 66.7 42% 97 30.02 0.0
04 16:55 N 6 10.00 Partly Cloudy SCT120 92.8 69.1 46% 98 30.02 0.0
04 16:35 W 5 10.00 Partly Cloudy SCT060 SCT085 93.4 71.2 49% 101 30.03 0.0
04 16:15 W 7 10.00 Mostly Cloudy SCT055 SCT085 BKN100 92.5 70.2 48% 99 30.03 0.0
04 15:55 W 3 10.00 Partly Cloudy SCT055 SCT065 SCT120 92.8 69.1 46% 98 30.04 0.0
04 15:35 W 6 10.00 Partly Cloudy SCT050 94.5 70.2 45% 101 30.05 0.0
04 15:15 SW 5 10.00 Partly Cloudy SCT050 93.7 70.3 47% 100 30.06 0.0
04 14:55 NW 5 10.00 Partly Cloudy SCT060 SCT070 93 71.8 50% 101 30.07 0.0
04 14:35 Calm 10.00 Mostly Cloudy SCT060 BKN075 91.6 71.2 51% 98 30.07 0.0
04 14:15 W 6 10.00 Mostly Cloudy BKN047 92.8 72 51% 101 30.08 0.0
04 13:55 Calm 10.00 Mostly Cloudy BKN045 BKN060 BKN070 92.3 71.2 92.8 70.7 50% 99 30.09 0.0
04 13:35 SW 3 10.00 Partly Cloudy SCT075 SCT085 92.3 71.4 51% 100 30.09 0.0
04 13:15 SW 6 10.00 Fair CLR 91.8 71.8 52% 99 30.1 0.0
04 12:55 Calm 7.00 Fair CLR 90.5 72.3 55% 98 30.1 0.0
04 12:35 Calm 10.00 Fair CLR 89.6 72 56% 97 30.11 0.0
04 12:15 SW 3 10.00 Fair CLR 89.2 72.3 57% 97 30.12 0.0
04 11:55 W 3 7.00 Partly Cloudy SCT065 86.9 71.8 61% 93 30.12 0.0
04 11:35 Calm 7.00 Partly Cloudy SCT065 86.2 72.1 63% 93 30.13 0.0
04 11:15 Calm 7.00 Fair CLR 84.7 72.7 67% 91 30.13 0.0
04 10:55 Calm 7.00 Fair CLR 81.1 72.3 75% 86 30.13 0.0
04 10:35 Calm 7.00 Fair CLR 79.3 72.3 79% 83 30.13 0.0
04 10:15 Calm 5.00 Fair CLR 77.7 71.4 81% 80 30.13 0.0
04 09:55 Calm 10.00 Partly Cloudy SCT004 76.6 71.6 84% 78 30.13 0.0
04 09:35 Calm 5.00 Overcast OVC002 74.3 71.6 91% 30.13 0.0
04 09:15 Calm 5.00 Overcast OVC002 72 71.2 98% 30.13 0.0
04 08:55 Calm 3.00 Overcast OVC002 71.2 71.1 99% 30.13 0.0
04 08:35 Calm 1.50 Overcast OVC002 71.1 71.1 100% 30.13 0.0
04 08:15 Calm 0.50 Overcast OVC002 70.7 70.7 100% 30.13 0.0
04 07:55 Calm 0.50 Overcast OVC002 70.7 70.7 72.5 70.7 100% 30.11 0.0
04 07:35 Calm 0.75 Overcast OVC002 70.7 70.7 100% 30.11 0.0
04 07:15 Calm 3.00 Overcast OVC002 70.7 70.7 100% 30.11 0.0
04 06:55 Calm 3.00 Overcast OVC002 70.9 70.9 100% 30.1 0.0
04 06:35 Calm 1.75 Overcast OVC002 70.7 70.7 100% 30.1 0.0
04 06:15 Calm 1.00 Overcast OVC002 70.7 70.7 100% 30.1 0.0
04 05:55 Calm 1.00 Overcast OVC002 71.1 71.1 100% 30.09 0.0
04 05:35 Calm 0.75 Overcast OVC002 71.1 71.1 100% 30.09 0.0
04 05:15 Calm 1.50 Overcast OVC002 71.2 71.2 100% 30.08 0.0
04 04:55 Calm 2.00 Overcast OVC002 71.2 71.2 100% 30.08 0.0
04 04:35 Calm 0.75 Overcast OVC002 71.2 71.2 100% 30.08 0.0
04 04:15 Calm 1.50 Overcast OVC002 71.4 71.4 100% 30.08 0.0
04 03:55 Calm 1.25 Overcast OVC002 71.2 71.2 100% 30.08 0.0
04 03:35 Calm 5.00 Overcast OVC002 71.6 71.6 100% 30.08 0.0
04 03:15 Calm 5.00 Overcast OVC002 71.8 71.8 100% 30.08 0.0
04 02:55 Calm 5.00 Overcast OVC002 71.8 71.8 100% 30.09 0.0
04 02:35 Calm 4.00 Mostly Cloudy BKN002 71.8 71.8 100% 30.09 0.0
04 02:15 Calm 5.00 Fair CLR 72 72 100% 30.1 0.0
04 01:55 Calm 5.00 Partly Cloudy SCT003 72.5 72.5 81.5 72.5 100% 30.1 0.0
04 01:35 Calm 7.00 Fair CLR 72.7 72.7 100% 30.11 0.0
04 01:15 Calm 7.00 Fair CLR 73 73 100% 30.11 0.0
04 00:55 Calm 7.00 Fair CLR 73.4 73.4 100% 30.12 0.0
04 00:35 Calm 7.00 Fair CLR 73.6 73.4 99% 30.12 0.0
04 00:15 Calm 7.00 Fair CLR 73.8 73.8 100% 30.12 0.0
03 23:55 Calm 5.00 Fair CLR 73.9 73.6 99% 30.12 0.0
03 23:35 Calm 7.00 Fair CLR 74.5 74.3 99% 30.12 0.0
03 23:15 Calm 10.00 Fair CLR 74.7 74.3 99% 30.12 0.0
03 22:55 Calm 10.00 Fair CLR 75.4 74.3 96% 74 30.12 0.0
03 22:35 Calm 10.00 Fair CLR 75.6 74.5 96% 74 30.12 0.0
03 22:15 Calm 7.00 Fair CLR 76.1 74.5 95% 76 30.12 0.0
03 21:55 Calm 10.00 Fair CLR 76.8 74.3 92% 78 30.11 0.0
03 21:35 Calm 10.00 Fair CLR 77.2 74.5 91% 79 30.11 0.0
03 21:15 Calm 10.00 Fair CLR 78.1 74.3 88% 81 30.1 0.0
03 20:55 Calm 10.00 Fair CLR 79.5 74.3 84% 84 30.1 0.0
03 20:35 Calm 10.00 Fair CLR 79.3 74.1 84% 83 30.08 0.0
03 20:15 Calm 10.00 Fair CLR 81 73.8 79% 86 30.07 0.0
03 19:55 Calm 10.00 Fair CLR 82 73.6 94.5 82 76% 88 30.07 0.0
03 19:35 Calm 10.00 Fair CLR 84 73.9 72% 91 30.07 0.0
03 19:15 Calm 10.00 Fair CLR 86.4 73.6 66% 94 30.06 0.0
03 18:55 Calm 10.00 Fair CLR 89.2 74.1 61% 98 30.06 0.0
03 18:35 Calm 10.00 Fair CLR 90.3 73.2 57% 99 30.06 0.0
03 18:15 Calm 7.00 Fair CLR 90.9 72.1 54% 98 30.05 0.0
03 17:55 Calm 10.00 Fair CLR 91.4 69.4 49% 97 30.05 0.0
03 17:35 SE 3 10.00 Fair CLR 91 70.9 52% 97 30.06 0.0
03 17:15 S 3 10.00 Partly Cloudy SCT065 91.9 70.7 50% 98 30.06 0.0
03 16:55 W 3 10.00 Partly Cloudy SCT065 94.1 69.1 44% 100 30.07 0.0
03 16:35 Calm 10.00 Fair CLR 93.9 69.3 45% 99 30.08 0.0
03 16:15 Calm 10.00 Fair CLR 91.6 69.4 48% 97 30.08 0.0
03 15:55 Calm 10.00 Fair CLR 92.5 67.3 44% 96 30.08 0.0
03 15:35 N 3 10.00 Partly Cloudy SCT095 SCT120 92.5 69.1 46% 98 30.09 0.0
03 15:15 N 3 10.00 Mostly Cloudy SCT060 SCT070 BKN100 89.6 72 56% 97 30.1 0.0
03 14:55 N 3 10.00 Overcast BKN050 OVC070 93.2 70.2 47% 99 30.1 0.0
03 14:35 N 5 10.00 Overcast BKN050 OVC070 94.3 68.9 44% 100 30.1 0.0
03 14:15 W 3 10.00 Overcast OVC060 93.6 70.3 47% 100 30.11 0.0
03 13:55 S 3 10.00 Mostly Cloudy BKN060 BKN065 93 68.7 93.9 69.8 45% 98 30.12 0.0
03 13:35 W 3 10.00 Partly Cloudy SCT060 93.2 70.5 48% 100 30.12 0.0
03 13:15 Calm 10.00 Fair CLR 91.2 71.1 52% 98 30.13 0.0
03 12:55 SE 3 10.00 Fair CLR 91 70.5 51% 97 30.13 0.0
03 12:35 Calm 10.00 Fair CLR 90 70.5 53% 96 30.14 0.0
03 12:15 SW 3 7.00 Fair CLR 88.3 72.9 60% 96 30.15 0.0
03 11:55 Calm 7.00 Fair CLR 87.8 73.6 63% 96 30.15 0.0
03 11:35 Calm 7.00 Fair CLR 84.4 72 66% 90 30.15 0.0
03 11:15 Calm 7.00 Fair CLR 82.8 72 70% 88 30.16 0.0
03 10:55 Calm 10.00 Fair CLR 80.8 72 75% 85 30.16 0.0
03 10:35 Calm 7.00 Fair CLR 79.2 71.6 78% 82 30.16 0.0
03 10:15 Calm 5.00 Fair CLR 77.7 71.1 80% 80 30.16 0.0
03 09:55 Calm 7.00 Partly Cloudy SCT004 76.6 71.4 84% 78 30.16 0.0
03 09:35 Calm 7.00 Mostly Cloudy BKN002 72.9 70.9 94% 30.16 0.0
03 09:15 Calm 4.00 Overcast OVC002 71.2 70.3 97% 30.17 0.0
03 08:55 Calm 2.00 Overcast OVC002 70.9 70.7 99% 30.17 0.0
03 08:35 Calm 0.75 Overcast OVC002 70 70 100% 30.17 0.0
03 08:15 Calm 0.50 Overcast OVC002 70 70 100% 30.17 0.0
03 07:55 Calm 1.00 Overcast OVC002 69.8 69.8 71.6 69.6 100% 30.17 0.0
03 07:35 Calm 0.75 Overcast OVC002 69.8 69.8 100% 30.16 0.0
03 07:15 Calm 1.00 Overcast OVC002 69.8 69.8 100% 30.15 0.0
03 06:55 Calm 0.50 Overcast OVC002 69.8 69.8 100% 30.14 0.0
03 06:35 Calm 1.75 Overcast OVC002 69.8 69.8 100% 30.13 0.0
03 06:15 Calm 1.00 Overcast OVC002 70 70 100% 30.13 0.0
03 05:55 Calm 1.50 Overcast OVC002 70.3 70.3 100% 30.14 0.0
03 05:35 Calm 2.50 Overcast OVC002 70.5 70.5 100% 30.13 0.0
03 05:15 Calm 3.00 Overcast OVC002 70.7 70.7 100% 30.14 0.0
03 04:55 Calm 2.50 Overcast OVC002 70.7 70.7 100% 30.14 0.0
03 04:35 Calm 3.00 Overcast OVC002 70.7 70.7 100% 30.13 0.0
03 04:15 Calm 2.50 Overcast OVC002 70.9 70.9 100% 30.14 0.0
03 03:55 Calm 4.00 Overcast OVC002 71.1 71.1 100% 30.13 0.0
03 03:35 Calm 4.00 Overcast OVC002 71.1 71.1 100% 30.13 0.0
03 03:15 Calm 4.00 Overcast OVC002 71.1 71.1 100% 30.13 0.0
03 02:55 Calm 4.00 Overcast OVC002 71.2 71.2 100% 30.13 0.0
03 02:35 Calm 4.00 Mostly Cloudy BKN002 71.6 71.6 100% 30.13 0.0
03 02:15 Calm 5.00 Partly Cloudy SCT002 71.6 71.6 100% 30.13 0.0
03 01:55 Calm 5.00 Partly Cloudy SCT002 71.6 71.6 81.3 71.6 100% 30.13 0.0
03 01:35 Calm 5.00 Partly Cloudy SCT002 71.8 71.8 100% 30.13 0.0
03 01:15 Calm 5.00 Fair CLR 72.1 72.1 100% 30.13 0.0
03 00:55 Calm 5.00 Fair CLR 72.5 72.5 100% 30.14 0.0
03 00:35 Calm 5.00 Fair CLR 72.7 72.7 100% 30.14 0.0
03 00:15 Calm 5.00 Fair CLR 72.7 72.7 100% 30.14 0.0
02 23:55 Calm 7.00 Fair CLR 73 73 100% 30.14 0.0
02 23:35 Calm 7.00 Fair CLR 73.4 73.4 100% 30.14 0.0
02 23:15 Calm 5.00 Fair CLR 73.6 73.4 99% 30.14 0.0
02 22:55 Calm 5.00 Fair CLR 73.9 73.6 99% 30.14 0.0
02 22:35 Calm 7.00 Fair CLR 74.3 73.8 98% 30.14 0.0
02 22:15 Calm 7.00 Fair CLR 75.2 74.1 96% 73 30.14 0.0
02 21:55 Calm 7.00 Fair CLR 75.2 73.9 96% 73 30.14 0.0
02 21:35 Calm 7.00 Fair CLR 75.6 73.9 95% 74 30.13 0.0
02 21:15 Calm 7.00 Fair CLR 76.6 73.9 91% 77 30.13 0.0
02 20:55 Calm 10.00 Fair CLR 77.2 73.9 90% 79 30.12 0.0
02 20:35 Calm 7.00 Fair CLR 78.3 73.6 86% 81 30.12 0.0
02 20:15 Calm 7.00 Fair CLR 80.2 72.7 78% 84 30.12 0.0
02 19:55 Calm 10.00 Fair CLR 81.1 73.8 93.9 81.1 78% 86 30.11 0.0
02 19:35 Calm 10.00 Fair CLR 84 73 70% 90 30.11 0.0
02 19:15 Calm 7.00 Fair CLR 86.4 74.1 67% 95 30.11 0.0
02 18:55 Calm 10.00 Fair CLR 89.2 72.9 59% 97 30.11 0.0
02 18:35 Calm 7.00 Fair CLR 91.4 71.2 52% 98 30.11 0.0
02 18:15 Calm 10.00 Fair CLR 92.3 68.9 46% 97 30.11 0.0
02 17:55 W 3 10.00 Fair CLR 92.5 68.9 46% 97 30.12 0.0
02 17:35 W 5 10.00 Partly Cloudy SCT050 92.3 69.3 47% 98 30.11 0.0
02 17:15 SW 3 10.00 Partly Cloudy SCT050 92.3 69.3 47% 98 30.12 0.0
02 16:55 Calm 7.00 Mostly Cloudy BKN050 91.6 70.3 50% 98 30.12 0.0
02 16:35 Calm 10.00 Partly Cloudy SCT060 SCT070 89.2 70 53% 95 30.12 0.0
02 16:15 Calm 10.00 Mostly Cloudy SCT050 BKN070 90.1 72 55% 97 30.13 0.0
02 15:55 Calm 7.00 Partly Cloudy SCT049 SCT060 89.4 69.8 52% 95 30.13 0.0
02 15:35 NE 3 7.00 Mostly Cloudy SCT049 BKN060 BKN090 91.6 69.8 49% 97 30.14 0.0
02 15:15 Calm 7.00 Partly Cloudy SCT049 SCT090 93.2 71.2 49% 100 30.14 0.0
02 14:55 S 3 10.00 Partly Cloudy SCT049 91.2 70.2 50% 97 30.15 0.0
02 14:35 SW 3 7.00 Fair CLR 91.2 69.3 49% 96 30.16 0.0
02 14:15 W 3 7.00 Partly Cloudy SCT060 SCT070 91 69.4 49% 96 30.16 0.0
Date Time (edt) Wind (mph) Vis. (mi.) Weather Sky Cond. Air Dwpt Max. Min. Relative Humidity Wind Chill (°F) Heat Index (°F) altimeter (in) sea level (mb) 1 hr 3 hr 6 hr
6 hour
Temperature (ºF) Pressure Precipitation (in)